Time;durP1;ratioP1;P1;durP2;ratioP2;P2;SDS_P1;SDS_P2;PMS_P1;PMS_P2;Temp;Humidity;BMP_temperature;BMP_pressure;BME280_temperature;BME280_humidity;BME280_pressure;Samples;Min_cycle;Max_cycle;Signal;HPM_P1;HPM_P2
2022/04/06 00:00:41;;;;;;;10.70;4.43;;;;;;;;;;6120937;23;20395;-88
2022/04/06 00:03:07;;;;;;;12.45;4.28;;;;;;;;;;6122225;23;19998;-89
2022/04/06 00:05:33;;;;;;;14.15;4.15;;;;;;;;;;6120974;23;20339;-89
2022/04/06 00:08:00;;;;;;;9.00;3.38;;;;;;;;;;6120875;23;20005;-89
2022/04/06 00:10:26;;;;;;;16.50;5.20;;;;;;;;;;6121043;23;20016;-91
2022/04/06 00:12:52;;;;;;;35.38;11.65;;;;;;;;;;6121188;23;20045;-90
2022/04/06 00:15:18;;;;;;;235.52;108.43;;;;;;;;;;6120784;23;20010;-89
2022/04/06 00:17:44;;;;;;;15.07;5.32;;;;;;;;;;6121285;23;20009;-90
2022/04/06 00:20:10;;;;;;;9.55;3.90;;;;;;;;;;6122077;23;20347;-88
2022/04/06 00:22:37;;;;;;;9.30;3.95;;;;;;;;;;6122204;23;20006;-91
2022/04/06 00:25:03;;;;;;;15.88;5.45;;;;;;;;;;6122336;23;20485;-89
2022/04/06 00:27:29;;;;;;;10.07;4.40;;;;;;;;;;6122885;23;19998;-88
2022/04/06 00:29:55;;;;;;;16.27;5.15;;;;;;;;;;6121217;23;20410;-91
2022/04/06 00:32:21;;;;;;;12.15;4.63;;;;;;;;;;6121515;23;20343;-90
2022/04/06 00:37:32;;;;;;;10.25;3.58;;;;;;;;;;6122700;23;20029;-91
2022/04/06 00:39:58;;;;;;;10.50;3.70;;;;;;;;;;6121123;23;20088;-89
2022/04/06 00:42:24;;;;;;;15.20;4.00;;;;;;;;;;6120816;23;20021;-89
2022/04/06 00:44:50;;;;;;;12.25;4.53;;;;;;;;;;6123218;23;19998;-91
2022/04/06 00:47:16;;;;;;;14.02;4.13;;;;;;;;;;6124507;23;20009;-90
2022/04/06 00:49:42;;;;;;;12.48;4.80;;;;;;;;;;6126219;23;20014;-90
2022/04/06 00:52:09;;;;;;;12.63;3.75;;;;;;;;;;6124418;23;20006;-91
2022/04/06 00:54:35;;;;;;;16.98;4.13;;;;;;;;;;6122347;23;20032;-89
2022/04/06 00:57:01;;;;;;;17.35;3.58;;;;;;;;;;6122349;23;20002;-90
2022/04/06 00:59:29;;;;;;;11.48;3.58;;;;;;;;;;6121052;23;20010;-89
2022/04/06 01:01:56;;;;;;;11.53;3.90;;;;;;;;;;6122536;23;20002;-90
2022/04/06 01:04:22;;;;;;;11.10;3.72;;;;;;;;;;6122422;23;20038;-89
2022/04/06 01:06:49;;;;;;;13.45;3.30;;;;;;;;;;6120713;23;20010;-90
2022/04/06 01:09:19;;;;;;;14.43;3.63;;;;;;;;;;6122266;23;20006;-91
2022/04/06 01:11:46;;;;;;;8.50;3.28;;;;;;;;;;6120731;23;20021;-90
2022/04/06 01:14:12;;;;;;;11.15;3.30;;;;;;;;;;6121966;23;20339;-90
2022/04/06 01:16:39;;;;;;;7.18;2.95;;;;;;;;;;6122925;23;20006;-90
2022/04/06 01:19:05;;;;;;;11.02;3.92;;;;;;;;;;6122182;23;20435;-88
2022/04/06 01:21:31;;;;;;;9.55;3.20;;;;;;;;;;6120751;23;20006;-89
2022/04/06 01:23:57;;;;;;;12.35;3.17;;;;;;;;;;6121990;23;20085;-91
2022/04/06 01:26:24;;;;;;;10.48;2.88;;;;;;;;;;6122042;23;20351;-90
2022/04/06 01:28:50;;;;;;;6.57;2.80;;;;;;;;;;6122208;23;19998;-89
2022/04/06 01:31:16;;;;;;;183.35;80.57;;;;;;;;;;6122022;23;20020;-88
2022/04/06 01:33:42;;;;;;;10.35;3.50;;;;;;;;;;6123147;23;20009;-90
2022/04/06 01:36:08;;;;;;;365.92;149.55;;;;;;;;;;6121604;23;20060;-89
2022/04/06 01:38:35;;;;;;;286.42;112.22;;;;;;;;;;6121980;23;19998;-90
2022/04/06 01:41:01;;;;;;;11.98;3.05;;;;;;;;;;6122331;23;20026;-88
2022/04/06 01:43:27;;;;;;;138.43;45.28;;;;;;;;;;6121924;23;20010;-88
2022/04/06 01:45:54;;;;;;;462.63;182.05;;;;;;;;;;6122465;23;20077;-90
2022/04/06 01:48:20;;;;;;;341.45;130.10;;;;;;;;;;6121852;23;20002;-90
2022/04/06 01:53:38;;;;;;;9.20;2.35;;;;;;;;;;6098950;23;20006;-88
2022/04/06 01:56:05;;;;;;;10.93;2.50;;;;;;;;;;6121802;23;20059;-88
2022/04/06 01:58:31;;;;;;;7.13;2.50;;;;;;;;;;6121833;23;20005;-88
2022/04/06 02:00:57;;;;;;;10.35;2.95;;;;;;;;;;6121743;23;20002;-89
2022/04/06 02:03:23;;;;;;;9.98;2.60;;;;;;;;;;6121719;23;20005;-89
2022/04/06 02:05:49;;;;;;;13.10;2.92;;;;;;;;;;6121530;23;20073;-87
2022/04/06 02:08:15;;;;;;;5.88;2.33;;;;;;;;;;6122795;23;20026;-89
2022/04/06 02:10:41;;;;;;;6.40;2.60;;;;;;;;;;6121816;23;20014;-88
2022/04/06 02:13:07;;;;;;;8.02;2.50;;;;;;;;;;6121726;23;20302;-90
2022/04/06 02:15:33;;;;;;;10.63;2.80;;;;;;;;;;6121620;23;20001;-88
2022/04/06 02:18:00;;;;;;;7.57;2.60;;;;;;;;;;6121546;23;20002;-88
2022/04/06 02:20:26;;;;;;;7.38;2.45;;;;;;;;;;6121466;23;20001;-88
2022/04/06 02:22:52;;;;;;;8.07;2.28;;;;;;;;;;6121957;23;19998;-89
2022/04/06 02:25:18;;;;;;;8.25;2.50;;;;;;;;;;6121599;23;20025;-88
2022/04/06 02:27:48;;;;;;;42.33;20.77;;;;;;;;;;6122557;23;20453;-85
2022/04/06 02:30:14;;;;;;;4.40;2.30;;;;;;;;;;6120916;23;20013;-88
2022/04/06 02:32:40;;;;;;;6.85;2.75;;;;;;;;;;6121705;23;20130;-90
2022/04/06 02:35:07;;;;;;;5.85;2.25;;;;;;;;;;6120079;23;20046;-88
2022/04/06 02:37:33;;;;;;;6.03;2.30;;;;;;;;;;6121811;23;20068;-92
2022/04/06 02:39:59;;;;;;;13.93;3.08;;;;;;;;;;6121518;23;20435;-87
2022/04/06 02:42:25;;;;;;;8.80;2.72;;;;;;;;;;6121765;23;20435;-91
2022/04/06 02:44:51;;;;;;;5.28;2.20;;;;;;;;;;6121399;23;20072;-90
2022/04/06 02:47:17;;;;;;;7.05;2.30;;;;;;;;;;6122004;23;20005;-91
2022/04/06 02:49:43;;;;;;;11.02;2.90;;;;;;;;;;6121229;23;20001;-90
2022/04/06 02:52:09;;;;;;;4.68;2.10;;;;;;;;;;6121672;23;20014;-90
2022/04/06 02:54:35;;;;;;;6.45;2.30;;;;;;;;;;6121550;23;20072;-90
2022/04/06 02:57:01;;;;;;;5.10;2.10;;;;;;;;;;6121365;23;20053;-93
2022/04/06 02:59:27;;;;;;;4.35;2.28;;;;;;;;;;6121511;23;20002;-90
2022/04/06 03:01:53;;;;;;;7.72;2.40;;;;;;;;;;6121489;23;19998;-91
2022/04/06 03:04:19;;;;;;;7.65;2.80;;;;;;;;;;6122130;23;20347;-91
2022/04/06 03:06:45;;;;;;;5.93;2.25;;;;;;;;;;6121007;23;20089;-90
2022/04/06 03:09:11;;;;;;;5.45;2.17;;;;;;;;;;6119803;23;20089;-88
2022/04/06 03:11:37;;;;;;;7.68;2.40;;;;;;;;;;6121619;23;20002;-90
2022/04/06 03:14:04;;;;;;;44.40;16.05;;;;;;;;;;6121706;23;20025;-89
2022/04/06 03:16:30;;;;;;;7.80;2.50;;;;;;;;;;6121802;23;20077;-91
2022/04/06 03:18:57;;;;;;;409.08;154.60;;;;;;;;;;6130340;23;20495;-86
2022/04/06 03:21:23;;;;;;;684.95;303.73;;;;;;;;;;6138239;23;20490;-88
2022/04/06 03:23:49;;;;;;;759.20;344.35;;;;;;;;;;6140831;23;20005;-89
2022/04/06 03:26:15;;;;;;;747.80;336.17;;;;;;;;;;6124185;23;20371;-90
2022/04/06 03:28:42;;;;;;;769.63;349.67;;;;;;;;;;6121449;23;20001;-92
2022/04/06 03:31:08;;;;;;;793.03;356.30;;;;;;;;;;6121298;23;20081;-89
2022/04/06 03:33:34;;;;;;;870.97;383.10;;;;;;;;;;6121656;23;20073;-90
2022/04/06 03:36:00;;;;;;;906.03;409.25;;;;;;;;;;6121469;23;20443;-89
2022/04/06 03:38:26;;;;;;;953.10;441.70;;;;;;;;;;6121495;23;20005;-91
2022/04/06 03:40:52;;;;;;;836.03;376.35;;;;;;;;;;6121328;23;20001;-88
2022/04/06 03:43:18;;;;;;;911.15;417.00;;;;;;;;;;6122621;23;20006;-88
2022/04/06 03:45:44;;;;;;;940.65;450.42;;;;;;;;;;6121563;23;20002;-88
2022/04/06 03:48:10;;;;;;;954.08;442.48;;;;;;;;;;6121607;23;20439;-87
2022/04/06 03:50:38;;;;;;;972.50;457.15;;;;;;;;;;6121598;23;20097;-94
2022/04/06 03:53:04;;;;;;;957.65;442.27;;;;;;;;;;6121589;23;20002;-93
2022/04/06 03:55:30;;;;;;;1026.07;520.63;;;;;;;;;;6121627;23;20006;-90
2022/04/06 03:57:56;;;;;;;1139.53;460.42;;;;;;;;;;6119653;23;20352;-91
2022/04/06 04:00:22;;;;;;;1094.95;515.33;;;;;;;;;;6124553;23;20002;-89
2022/04/06 04:02:48;;;;;;;1046.72;503.25;;;;;;;;;;6133677;23;20021;-94
2022/04/06 04:05:15;;;;;;;1062.82;539.85;;;;;;;;;;6130479;23;20416;-95
2022/04/06 04:07:44;;;;;;;1085.47;553.72;;;;;;;;;;6126495;23;20050;-93
2022/04/06 04:10:09;;;;;;;;;;;;;;;;;;6135365;23;20018;-94
2022/04/06 04:12:36;;;;;;;1018.92;520.72;;;;;;;;;;6130696;23;19901;-91
2022/04/06 04:15:03;;;;;;;1171.95;501.40;;;;;;;;;;6133963;23;20466;-93
2022/04/06 04:17:29;;;;;;;1108.67;546.20;;;;;;;;;;6129557;23;19905;-92
2022/04/06 04:19:55;;;;;;;1251.22;541.05;;;;;;;;;;6121696;23;20491;-91
2022/04/06 04:22:22;;;;;;;1139.45;558.60;;;;;;;;;;6124498;23;20054;-91
2022/04/06 04:24:48;;;;;;;1296.93;568.67;;;;;;;;;;6121380;23;20476;-90
2022/04/06 04:27:15;;;;;;;1328.78;574.00;;;;;;;;;;6121307;23;20464;-90
2022/04/06 04:29:42;;;;;;;1149.72;550.05;;;;;;;;;;6122881;23;20335;-92
2022/04/06 04:32:10;;;;;;;1290.32;558.17;;;;;;;;;;6121253;23;20864;-87
2022/04/06 04:34:36;;;;;;;1249.60;598.00;;;;;;;;;;6122880;23;20001;-90
2022/04/06 04:37:02;;;;;;;1407.80;593.63;;;;;;;;;;6120785;23;20753;-92
2022/04/06 04:39:28;;;;;;;1415.93;585.58;;;;;;;;;;6121081;23;20613;-93
2022/04/06 04:41:54;;;;;;;1438.70;586.35;;;;;;;;;;6122184;23;20428;-90
2022/04/06 04:44:20;;;;;;;1508.20;612.70;;;;;;;;;;6122329;23;20365;-91
2022/04/06 04:46:46;;;;;;;1503.80;601.87;;;;;;;;;;6121314;23;20362;-92
2022/04/06 04:49:12;;;;;;;1531.55;620.40;;;;;;;;;;6121268;23;20440;-92
2022/04/06 04:51:38;;;;;;;;;;;;;;;;;;6120742;23;21027;-91
2022/04/06 04:54:04;;;;;;;;;;;;;;;;;;6120004;23;20362;-93
2022/04/06 04:56:32;;;;;;;;;;;;;;;;;;6119489;23;20354;-91
2022/04/06 04:58:58;;;;;;;1567.10;666.35;;;;;;;;;;6116985;23;20899;-91
2022/04/06 05:01:24;;;;;;;;;;;;;;;;;;6120789;23;20435;-94
2022/04/06 05:03:51;;;;;;;;;;;;;;;;;;6120395;23;20380;-90
2022/04/06 05:06:17;;;;;;;;;;;;;;;;;;6119719;23;20384;-91
2022/04/06 05:08:43;;;;;;;;;;;;;;;;;;6118872;23;20425;-90
2022/04/06 05:11:09;;;;;;;;;;;;;;;;;;6117488;23;20400;-91
2022/04/06 05:13:36;;;;;;;;;;;;;;;;;;6118609;23;20676;-89
2022/04/06 05:16:02;;;;;;;;;;;;;;;;;;6116983;23;20403;-92
2022/04/06 05:18:29;;;;;;;;;;;;;;;;;;6116429;23;20333;-91
2022/04/06 05:20:55;;;;;;;1242.13;521.35;;;;;;;;;;6118794;23;20363;-93
2022/04/06 05:23:21;;;;;;;25.98;6.47;;;;;;;;;;6122809;23;20005;-89
2022/04/06 05:25:47;;;;;;;1066.57;479.38;;;;;;;;;;6121296;23;20448;-90
2022/04/06 05:28:15;;;;;;;1137.50;577.28;;;;;;;;;;6123287;23;20009;-92
2022/04/06 05:30:42;;;;;;;1150.30;591.85;;;;;;;;;;6122951;23;19909;-90
2022/04/06 05:33:08;;;;;;;1364.85;588.55;;;;;;;;;;6120010;23;20357;-92
2022/04/06 05:35:34;;;;;;;1396.57;587.03;;;;;;;;;;6121303;23;20450;-92
2022/04/06 05:38:01;;;;;;;1393.37;581.63;;;;;;;;;;6121562;23;20353;-94
2022/04/06 05:40:27;;;;;;;1382.40;569.50;;;;;;;;;;6122158;23;20360;-92
2022/04/06 05:42:53;;;;;;;1396.07;573.35;;;;;;;;;;6121053;23;20357;-92
2022/04/06 05:45:19;;;;;;;1381.73;568.63;;;;;;;;;;6121507;23;20447;-92
2022/04/06 05:47:45;;;;;;;1279.57;592.38;;;;;;;;;;6121870;23;20025;-92
2022/04/06 05:50:12;;;;;;;1440.05;620.00;;;;;;;;;;6121236;23;20381;-92
2022/04/06 05:52:38;;;;;;;1459.63;617.20;;;;;;;;;;6122328;23;20444;-89
2022/04/06 05:55:05;;;;;;;1468.97;619.15;;;;;;;;;;6131901;23;20372;-90
2022/04/06 05:57:31;;;;;;;1486.35;628.78;;;;;;;;;;6138763;23;20423;-89
2022/04/06 05:59:58;;;;;;;1487.37;625.80;;;;;;;;;;6136327;23;20361;-91
2022/04/06 06:02:24;;;;;;;1487.53;620.90;;;;;;;;;;6123423;23;20404;-91
2022/04/06 06:04:51;;;;;;;1491.70;619.35;;;;;;;;;;6121035;23;20365;-93
2022/04/06 06:07:19;;;;;;;1490.78;616.45;;;;;;;;;;6120883;23;20359;-91
2022/04/06 06:09:46;;;;;;;1502.43;625.40;;;;;;;;;;6119169;23;20459;-92
2022/04/06 06:12:12;;;;;;;1468.85;594.75;;;;;;;;;;6122455;23;20441;-87
2022/04/06 06:14:38;;;;;;;1394.00;603.88;;;;;;;;;;6121561;23;20005;-88
2022/04/06 06:17:04;;;;;;;;;;;;;;;;;;6120064;23;20010;-89
2022/04/06 06:19:30;;;;;;;;;;;;;;;;;;6119417;23;20369;-87
2022/04/06 06:21:56;;;;;;;;;;;;;;;;;;6114778;23;20361;-87
2022/04/06 06:24:22;;;;;;;;;;;;;;;;;;6111633;23;20732;-87
2022/04/06 06:26:48;;;;;;;;;;;;;;;;;;6116342;23;20340;-87
2022/04/06 06:29:14;;;;;;;;;;;;;;;;;;6117226;23;25072;-88
2022/04/06 06:31:39;;;;;;;;;;;;;;;;;;6115229;23;20343;-85
2022/04/06 06:34:05;;;;;;;;;;;;;;;;;;6116700;23;20834;-87
2022/04/06 06:36:31;;;;;;;;;;;;;;;;;;6116984;23;20712;-87
2022/04/06 06:38:57;;;;;;;;;;;;;;;;;;6117255;23;20372;-87
2022/04/06 06:41:23;;;;;;;;;;;;;;;;;;6116640;23;20363;-86
2022/04/06 06:43:49;;;;;;;;;;;;;;;;;;6118212;23;20803;-89
2022/04/06 06:46:15;;;;;;;;;;;;;;;;;;6116789;23;20378;-88
2022/04/06 06:48:41;;;;;;;;;;;;;;;;;;6118305;23;25132;-89
2022/04/06 06:51:07;;;;;;;;;;;;;;;;;;6117622;23;25126;-89
2022/04/06 06:53:33;;;;;;;;;;;;;;;;;;6118109;23;20359;-89
2022/04/06 06:55:59;;;;;;;;;;;;;;;;;;6117351;23;20367;-88
2022/04/06 06:58:25;;;;;;;;;;;;;;;;;;6117947;23;20429;-87
2022/04/06 07:00:51;;;;;;;;;;;;;;;;;;6118379;23;20614;-87
2022/04/06 07:03:17;;;;;;;1514.80;635.77;;;;;;;;;;6118306;23;20359;-88
2022/04/06 07:05:45;;;;;;;944.67;450.87;;;;;;;;;;6118632;23;20317;-86
2022/04/06 07:08:11;;;;;;;7.20;2.08;;;;;;;;;;6121388;23;20447;-87
2022/04/06 07:10:37;;;;;;;8.57;2.75;;;;;;;;;;6120604;23;20470;-87
2022/04/06 07:13:03;;;;;;;10.10;2.50;;;;;;;;;;6119500;23;20006;-87
2022/04/06 07:15:30;;;;;;;8.25;2.40;;;;;;;;;;6121746;23;20078;-87
2022/04/06 07:17:57;;;;;;;6.30;2.42;;;;;;;;;;6120647;23;20081;-88
2022/04/06 07:20:24;;;;;;;9.85;2.30;;;;;;;;;;6119162;23;20014;-88
2022/04/06 07:22:51;;;;;;;5.43;2.00;;;;;;;;;;6113540;23;20489;-88
2022/04/06 07:25:17;;;;;;;9.60;2.90;;;;;;;;;;6117627;23;20022;-87
2022/04/06 07:27:43;;;;;;;8.02;2.38;;;;;;;;;;6116985;23;20458;-87
2022/04/06 07:30:09;;;;;;;168.88;74.90;;;;;;;;;;6119450;23;20014;-87
2022/04/06 07:32:36;;;;;;;6.32;2.00;;;;;;;;;;6120151;23;20029;-88
2022/04/06 07:35:04;;;;;;;9.02;2.50;;;;;;;;;;6119110;23;20010;-88
2022/04/06 07:37:36;;;;;;;14.40;5.43;;;;;;;;;;6121545;23;19998;-89
2022/04/06 07:40:03;;;;;;;2.90;1.83;;;;;;;;;;6120165;23;20013;-86
2022/04/06 07:42:29;;;;;;;4.80;1.77;;;;;;;;;;6121726;23;20522;-87
2022/04/06 07:44:56;;;;;;;7.65;2.25;;;;;;;;;;6120730;23;20361;-86
2022/04/06 07:47:22;;;;;;;4.63;1.90;;;;;;;;;;6118627;23;20006;-87
2022/04/06 07:49:48;;;;;;;5.03;2.08;;;;;;;;;;6120380;23;20009;-86
2022/04/06 07:52:14;;;;;;;5.82;1.70;;;;;;;;;;6120660;23;20017;-86
2022/04/06 07:54:40;;;;;;;6.65;2.13;;;;;;;;;;6120725;23;19998;-86
2022/04/06 07:57:06;;;;;;;7.47;2.42;;;;;;;;;;6118508;23;20089;-88
2022/04/06 07:59:32;;;;;;;4.30;1.90;;;;;;;;;;6119802;23;20056;-91
2022/04/06 08:01:58;;;;;;;10.18;2.08;;;;;;;;;;6119173;23;20428;-86
2022/04/06 08:04:24;;;;;;;3.05;1.90;;;;;;;;;;6120547;23;20796;-86
2022/04/06 08:06:50;;;;;;;3.10;2.00;;;;;;;;;;6120363;23;20002;-87
2022/04/06 08:09:16;;;;;;;2.97;1.90;;;;;;;;;;6120407;23;20002;-86
2022/04/06 08:11:42;;;;;;;13.93;2.58;;;;;;;;;;6118788;23;20034;-87
2022/04/06 08:14:08;;;;;;;4.70;2.10;;;;;;;;;;6118892;23;20002;-86
2022/04/06 08:16:34;;;;;;;5.32;2.15;;;;;;;;;;6120964;23;20343;-88
2022/04/06 08:19:00;;;;;;;6.20;2.35;;;;;;;;;;6121381;23;20006;-88
2022/04/06 08:21:27;;;;;;;4.40;2.08;;;;;;;;;;6120311;23;20005;-86
2022/04/06 08:23:53;;;;;;;6.47;2.25;;;;;;;;;;6121392;23;20376;-86
2022/04/06 08:26:20;;;;;;;4.53;2.35;;;;;;;;;;6118802;23;20439;-87
2022/04/06 08:28:47;;;;;;;5.00;1.95;;;;;;;;;;6120457;23;20013;-86
2022/04/06 08:31:13;;;;;;;12.25;2.20;;;;;;;;;;6120325;23;20355;-88
2022/04/06 08:33:39;;;;;;;4.32;2.10;;;;;;;;;;6120594;23;19998;-87
2022/04/06 08:36:06;;;;;;;6.55;2.50;;;;;;;;;;6121515;23;20006;-86
2022/04/06 08:38:32;;;;;;;4.05;2.10;;;;;;;;;;6120450;23;20037;-89
2022/04/06 08:40:59;;;;;;;3.92;2.08;;;;;;;;;;6112857;23;20077;-87
2022/04/06 08:43:25;;;;;;;3.65;1.95;;;;;;;;;;6116914;23;20331;-87
2022/04/06 08:45:51;;;;;;;2.83;2.13;;;;;;;;;;6119024;23;20006;-88
2022/04/06 08:48:17;;;;;;;4.40;1.90;;;;;;;;;;6121846;23;19997;-86
2022/04/06 08:50:45;;;;;;;4.75;1.70;;;;;;;;;;6122455;23;20065;-88
2022/04/06 08:53:12;;;;;;;4.43;2.00;;;;;;;;;;6121896;23;20383;-89
2022/04/06 08:55:38;;;;;;;2.17;1.70;;;;;;;;;;6122511;23;20053;-89
2022/04/06 08:58:05;;;;;;;3.97;1.90;;;;;;;;;;6121462;23;20002;-87
2022/04/06 09:00:32;;;;;;;3.40;2.33;;;;;;;;;;6122026;23;19999;-88
2022/04/06 09:02:58;;;;;;;3.97;2.20;;;;;;;;;;6121086;23;20343;-87
2022/04/06 09:05:27;;;;;;;3.65;2.25;;;;;;;;;;6122634;23;20069;-87
2022/04/06 09:07:54;;;;;;;4.85;2.03;;;;;;;;;;6120479;23;20112;-88
2022/04/06 09:10:33;;;;;;;3.40;2.00;;;;;;;;;;6120153;23;20018;-87
2022/04/06 09:13:18;;;;;;;1.98;1.88;;;;;;;;;;6120651;23;20009;-89
2022/04/06 09:15:44;;;;;;;4.05;2.03;;;;;;;;;;6120745;23;20001;-87
2022/04/06 09:18:10;;;;;;;3.55;2.13;;;;;;;;;;6120194;23;20041;-87
2022/04/06 09:20:36;;;;;;;2.83;1.95;;;;;;;;;;6122916;23;20005;-88
2022/04/06 09:23:03;;;;;;;4.72;2.20;;;;;;;;;;6121630;23;20434;-88
2022/04/06 09:25:33;;;;;;;2.53;1.65;;;;;;;;;;6121386;23;20454;-87
2022/04/06 09:28:05;;;;;;;5.50;2.60;;;;;;;;;;6121784;23;20034;-87
2022/04/06 09:30:35;;;;;;;5.20;2.40;;;;;;;;;;6121865;23;20009;-87
2022/04/06 09:33:04;;;;;;;7.72;2.30;;;;;;;;;;6120451;23;20049;-88
2022/04/06 09:35:32;;;;;;;4.22;2.10;;;;;;;;;;6121828;23;20017;-88
2022/04/06 09:38:11;;;;;;;3.55;2.35;;;;;;;;;;6121227;23;20085;-87
2022/04/06 09:40:40;;;;;;;3.13;1.95;;;;;;;;;;6122592;23;20428;-88
2022/04/06 09:43:07;;;;;;;3.38;1.85;;;;;;;;;;6122516;23;19998;-87
2022/04/06 09:48:17;;;;;;;3.15;1.73;;;;;;;;;;6121421;23;20068;-93
2022/04/06 09:50:55;;;;;;;4.95;1.58;;;;;;;;;;6121640;23;20420;-88
2022/04/06 09:53:25;;;;;;;1.52;1.42;;;;;;;;;;6119631;23;20028;-87
2022/04/06 09:55:57;;;;;;;4.60;2.00;;;;;;;;;;6120471;23;20006;-90
2022/04/06 09:58:24;;;;;;;3.53;1.38;;;;;;;;;;6119681;23;20017;-88
2022/04/06 10:00:51;;;;;;;3.65;1.35;;;;;;;;;;6121382;23;20013;-90
2022/04/06 10:03:18;;;;;;;2.33;1.40;;;;;;;;;;6121626;23;20009;-88
2022/04/06 10:05:44;;;;;;;2.22;1.40;;;;;;;;;;6120440;23;20009;-90
2022/04/06 10:08:11;;;;;;;2.20;1.55;;;;;;;;;;6122121;23;20006;-89
2022/04/06 10:10:40;;;;;;;3.90;1.45;;;;;;;;;;6122348;23;20085;-90
2022/04/06 10:13:07;;;;;;;1.85;1.10;;;;;;;;;;6120719;23;20006;-90
2022/04/06 10:15:38;;;;;;;2.13;1.47;;;;;;;;;;6120002;23;20012;-89
2022/04/06 10:18:04;;;;;;;3.60;1.42;;;;;;;;;;6121322;23;19998;-90
2022/04/06 10:20:36;;;;;;;1.98;1.20;;;;;;;;;;6121413;23;20588;-89
2022/04/06 10:23:02;;;;;;;3.33;0.98;;;;;;;;;;6121287;23;19998;-89
2022/04/06 10:25:49;;;;;;;2.20;1.17;;;;;;;;;;6121511;23;20431;-89
2022/04/06 10:28:15;;;;;;;4.38;1.00;;;;;;;;;;6119467;23;20010;-89
2022/04/06 10:30:41;;;;;;;1.60;1.13;;;;;;;;;;6120227;23;20018;-89
2022/04/06 10:33:20;;;;;;;1.20;1.10;;;;;;;;;;6120970;23;20009;-89
2022/04/06 10:35:46;;;;;;;1.40;1.10;;;;;;;;;;6119723;23;20005;-89
2022/04/06 10:38:14;;;;;;;1.42;1.02;;;;;;;;;;6119410;23;19998;-89
2022/04/06 10:40:43;;;;;;;1.57;1.00;;;;;;;;;;6123495;23;20457;-90
2022/04/06 10:43:28;;;;;;;4.75;1.40;;;;;;;;;;6122474;23;20073;-91
2022/04/06 10:45:54;;;;;;;1.38;1.15;;;;;;;;;;6120113;23;20444;-88
2022/04/06 10:48:20;;;;;;;1.75;1.13;;;;;;;;;;6121370;23;20383;-90
2022/04/06 10:50:50;;;;;;;1.38;0.80;;;;;;;;;;6121508;23;20014;-89
2022/04/06 10:53:19;;;;;;;1.30;0.60;;;;;;;;;;6120674;23;20343;-89
2022/04/06 10:56:06;;;;;;;1.00;0.65;;;;;;;;;;6120834;23;20017;-90
2022/04/06 10:58:50;;;;;;;2.80;0.80;;;;;;;;;;6120534;23;20321;-89
2022/04/06 11:01:18;;;;;;;4.18;0.75;;;;;;;;;;6121004;23;20010;-89
2022/04/06 11:04:04;;;;;;;3.25;0.70;;;;;;;;;;6123121;23;20423;-91
2022/04/06 11:06:44;;;;;;;0.93;0.90;;;;;;;;;;6133855;23;20422;-89
2022/04/06 11:12:14;;;;;;;2.03;1.05;;;;;;;;;;6140203;23;20024;-88
2022/04/06 11:14:41;;;;;;;1.75;1.30;;;;;;;;;;6127700;23;20011;-88
2022/04/06 11:17:26;;;;;;;3.13;1.20;;;;;;;;;;6121679;23;20440;-87
2022/04/06 11:19:53;;;;;;;2.30;0.60;;;;;;;;;;6121161;23;20080;-87
2022/04/06 11:22:22;;;;;;;0.60;0.60;;;;;;;;;;6121117;23;20137;-87
2022/04/06 11:24:48;;;;;;;5.32;0.95;;;;;;;;;;6121045;23;20078;-88
2022/04/06 11:27:33;;;;;;;1.27;0.80;;;;;;;;;;6119649;23;20021;-90
2022/04/06 11:30:00;;;;;;;1.77;1.30;;;;;;;;;;6119545;23;20399;-89
2022/04/06 11:32:26;;;;;;;2.25;1.08;;;;;;;;;;6120418;23;20029;-87
2022/04/06 11:34:59;;;;;;;2.05;1.40;;;;;;;;;;6114901;23;20006;-89
2022/04/06 11:37:25;;;;;;;7.03;1.40;;;;;;;;;;6118644;23;20006;-90
2022/04/06 11:39:56;;;;;;;1.77;1.02;;;;;;;;;;6116413;23;20065;-89
2022/04/06 11:42:22;;;;;;;1.63;1.10;;;;;;;;;;6112495;23;20006;-86
2022/04/06 11:44:48;;;;;;;2.47;1.60;;;;;;;;;;6115478;23;20017;-86
2022/04/06 11:47:14;;;;;;;3.13;1.50;;;;;;;;;;6116991;23;20008;-84
2022/04/06 11:49:41;;;;;;;1.85;1.42;;;;;;;;;;6117990;23;20010;-85
2022/04/06 11:52:07;;;;;;;4.90;1.50;;;;;;;;;;6117224;23;20014;-85
2022/04/06 11:54:33;;;;;;;6.53;1.40;;;;;;;;;;6119401;23;20393;-86
2022/04/06 11:56:59;;;;;;;3.85;1.70;;;;;;;;;;6119443;23;20002;-85
2022/04/06 11:59:26;;;;;;;3.92;1.30;;;;;;;;;;6119413;23;20401;-88
2022/04/06 12:01:52;;;;;;;5.03;1.60;;;;;;;;;;6122805;23;20435;-90
2022/04/06 12:04:22;;;;;;;3.65;1.83;;;;;;;;;;6118822;23;20465;-86
2022/04/06 12:06:49;;;;;;;1.67;1.17;;;;;;;;;;6117463;23;20510;-85
2022/04/06 12:09:15;;;;;;;4.88;1.40;;;;;;;;;;6117547;23;20089;-85
2022/04/06 12:11:41;;;;;;;4.95;2.00;;;;;;;;;;6118395;23;20010;-87
2022/04/06 12:14:11;;;;;;;4.25;1.55;;;;;;;;;;6113770;23;20002;-86
2022/04/06 12:16:38;;;;;;;3.38;1.58;;;;;;;;;;6114337;23;20069;-86
2022/04/06 12:19:08;;;;;;;1.75;1.50;;;;;;;;;;6113429;23;20017;-88
2022/04/06 12:21:40;;;;;;;5.40;2.08;;;;;;;;;;6117433;23;20109;-88
2022/04/06 12:24:06;;;;;;;3.08;1.38;;;;;;;;;;6119021;23;20009;-86
2022/04/06 12:26:47;;;;;;;5.78;1.80;;;;;;;;;;6119335;23;20009;-89
2022/04/06 12:29:14;;;;;;;7.70;1.45;;;;;;;;;;6117386;23;20010;-85
2022/04/06 12:31:42;;;;;;;5.53;1.67;;;;;;;;;;6117975;23;20025;-89
2022/04/06 12:34:09;;;;;;;4.50;1.00;;;;;;;;;;6117815;23;20398;-91
2022/04/06 12:36:36;;;;;;;6.07;1.30;;;;;;;;;;6119077;23;20061;-89
2022/04/06 12:39:13;;;;;;;3.42;1.90;;;;;;;;;;6119013;23;19998;-84
2022/04/06 12:41:52;;;;;;;2.72;1.50;;;;;;;;;;6120361;23;20097;-86
2022/04/06 12:44:19;;;;;;;6.35;2.75;;;;;;;;;;6119325;23;20005;-90
2022/04/06 12:46:46;;;;;;;12.27;1.90;;;;;;;;;;6118842;23;20002;-85
2022/04/06 12:49:18;;;;;;;3.72;1.52;;;;;;;;;;6119552;23;20009;-86
2022/04/06 12:51:44;;;;;;;4.20;1.08;;;;;;;;;;6121213;23;20020;-85
2022/04/06 12:54:10;;;;;;;6.63;1.60;;;;;;;;;;6121608;23;20009;-85
2022/04/06 12:56:37;;;;;;;7.28;1.45;;;;;;;;;;6122125;23;20002;-90
2022/04/06 12:59:10;;;;;;;5.43;1.30;;;;;;;;;;6125676;23;20570;-87
2022/04/06 13:01:46;;;;;;;3.17;1.30;;;;;;;;;;6122041;23;20013;-86
2022/04/06 13:04:12;;;;;;;6.25;1.30;;;;;;;;;;6122126;23;19998;-90
2022/04/06 13:06:38;;;;;;;11.32;1.50;;;;;;;;;;6120748;23;20333;-87
2022/04/06 13:09:04;;;;;;;8.00;1.50;;;;;;;;;;6121138;23;20029;-86
2022/04/06 13:11:30;;;;;;;6.82;1.48;;;;;;;;;;6120807;23;20060;-90
2022/04/06 13:13:56;;;;;;;2.88;1.02;;;;;;;;;;6120294;23;19998;-85
2022/04/06 13:16:27;;;;;;;6.43;1.55;;;;;;;;;;6120620;23;20013;-86
2022/04/06 13:18:53;;;;;;;8.35;1.63;;;;;;;;;;6121557;23;20049;-86
2022/04/06 13:21:23;;;;;;;13.70;1.63;;;;;;;;;;6121566;23;20002;-86
2022/04/06 13:23:49;;;;;;;4.28;1.40;;;;;;;;;;6120246;23;20049;-86
2022/04/06 13:26:17;;;;;;;7.82;1.50;;;;;;;;;;6121951;23;20002;-86
2022/04/06 13:28:43;;;;;;;3.65;1.20;;;;;;;;;;6123022;23;20416;-86
2022/04/06 13:31:09;;;;;;;15.15;1.83;;;;;;;;;;6120539;23;20020;-86
2022/04/06 13:33:36;;;;;;;3.83;1.60;;;;;;;;;;6119991;23;20010;-89
2022/04/06 13:36:01;;;;;;;5.78;1.90;;;;;;;;;;6121906;23;20006;-85
2022/04/06 13:38:28;;;;;;;6.97;1.83;;;;;;;;;;6120637;23;20008;-85
2022/04/06 13:40:54;;;;;;;3.97;1.50;;;;;;;;;;6125367;23;20002;-86
2022/04/06 13:43:20;;;;;;;10.05;1.60;;;;;;;;;;6125879;23;20013;-87
2022/04/06 13:45:46;;;;;;;5.55;1.35;;;;;;;;;;6126588;23;20008;-87
2022/04/06 13:48:12;;;;;;;6.07;1.60;;;;;;;;;;6123060;23;20076;-86
2022/04/06 13:50:39;;;;;;;6.82;1.60;;;;;;;;;;6122949;23;20009;-91
2022/04/06 13:53:05;;;;;;;6.05;1.38;;;;;;;;;;6122052;23;20028;-88
2022/04/06 13:55:32;;;;;;;3.25;1.25;;;;;;;;;;6120711;23;20450;-87
2022/04/06 13:57:58;;;;;;;4.82;1.42;;;;;;;;;;6120234;23;20002;-87
2022/04/06 14:00:24;;;;;;;11.43;2.47;;;;;;;;;;6119749;23;20017;-90
2022/04/06 14:02:51;;;;;;;3.75;1.33;;;;;;;;;;6122233;23;20386;-88
2022/04/06 14:05:20;;;;;;;5.40;1.40;;;;;;;;;;6120189;23;20022;-87
2022/04/06 14:07:47;;;;;;;2.97;1.60;;;;;;;;;;6121462;23;20061;-86
2022/04/06 14:10:13;;;;;;;4.03;1.38;;;;;;;;;;6121593;23;20014;-90
2022/04/06 14:12:39;;;;;;;3.67;1.15;;;;;;;;;;6120722;23;20005;-88
2022/04/06 14:15:05;;;;;;;3.08;1.05;;;;;;;;;;6120453;23;20001;-88
2022/04/06 14:17:32;;;;;;;1.77;1.00;;;;;;;;;;6120663;23;20002;-87
2022/04/06 14:19:58;;;;;;;3.85;1.60;;;;;;;;;;6118964;23;20010;-89
2022/04/06 14:22:24;;;;;;;5.70;1.50;;;;;;;;;;6118634;23;20005;-86
2022/04/06 14:27:36;;;;;;;3.88;1.63;;;;;;;;;;6120207;23;20013;-88
2022/04/06 14:30:02;;;;;;;9.90;1.90;;;;;;;;;;6118461;23;20010;-87
2022/04/06 14:32:28;;;;;;;6.18;2.08;;;;;;;;;;6118656;23;20055;-86
2022/04/06 14:34:55;;;;;;;7.03;1.83;;;;;;;;;;6120483;23;20001;-88
2022/04/06 14:37:21;;;;;;;3.17;1.52;;;;;;;;;;6119784;23;20010;-88
2022/04/06 14:39:47;;;;;;;5.18;1.60;;;;;;;;;;6119067;23;20008;-87
2022/04/06 14:42:16;;;;;;;10.70;1.92;;;;;;;;;;6118791;23;20038;-86
2022/04/06 14:44:42;;;;;;;6.82;1.90;;;;;;;;;;6119507;23;20013;-88
2022/04/06 14:47:08;;;;;;;4.25;1.20;;;;;;;;;;6119869;23;20052;-85
2022/04/06 14:49:34;;;;;;;4.97;1.60;;;;;;;;;;6120713;23;20002;-84
2022/04/06 14:52:00;;;;;;;9.40;3.03;;;;;;;;;;6118977;23;20320;-84